RIE weather

hln
Rice Lake, Wisconsin, United States

Public forecast

Using degrees Fahrenheit for public forecast. Weather courtesy of forecast.io.

METAR (pilot weather report)

Retrieved 2019/08/17 23:35 UTC (9 minutes ago):

KRPD 172335Z AUTO 16007KT 10SM CLR 26/16 A2981 RMK AO2 T02600155

TAF (pilot weather forecast)

Closest forecast is Chippewa Valley Regional Airport, 35.4 nm (65.6 km) SSE. Retrieved 2019/08/17 18:42 UTC (5 hours ago):

TAF KEAU 171740Z 1718/1818 19006KT P6SM FEW040 FM180000 16006KT P6SM SKC FM180800 VRB04KT P6SM VCTS SCT020 BKN050CB TEMPO 1809/1811 2SM -TSRA BR SCT008 OVC015CB FM181200 VRB04KT P6SM OVC008 FM181600 27007KT P6SM BKN012